METAR Data
IDs: Format: Raw Decoded Include TAF

Data at: 0426 UTC 26 May 2022

METAR for:EKRN (Ronne/Bornholm Arpt, HO, DK)
Text:EKRN 260420Z AUTO 24016KT 9999 BKN020/// BKN075/// 12/11 Q1009
Temperature: 12.0°C ( 54°F)
Dewpoint: 11.0°C ( 52°F) [RH = 94%]
Pressure (altimeter):29.79 inches Hg (1009.0 mb)
Winds:from the WSW (240 degrees) at 18 MPH (16 knots; 8.2 m/s)
Visibility:6 or more sm (10+ km)
Ceiling:2000 feet AGL
Clouds: broken clouds at 2000 feet AGL, broken clouds at 7500 feet AGL
Text:EKRN 260350Z AUTO 22011KT 190V250 9999 -RA OVC021/// 12/11 Q1009
Temperature: 12.0°C ( 54°F)
Dewpoint: 11.0°C ( 52°F) [RH = 94%]
Pressure (altimeter):29.79 inches Hg (1009.0 mb)
Winds:from the SW (220 degrees) at 13 MPH (11 knots; 5.7 m/s)
Visibility:6 or more sm (10+ km)
Ceiling:2100 feet AGL
Clouds: overcast cloud deck at 2100 feet AGL
Weather:-RA (light rain)
Text:EKRN 260320Z AUTO 21011KT 180V250 9999 OVC024/// 13/10 Q1009
Temperature: 13.0°C ( 55°F)
Dewpoint: 10.0°C ( 50°F) [RH = 82%]
Pressure (altimeter):29.79 inches Hg (1009.0 mb)
Winds:from the SSW (210 degrees) at 13 MPH (11 knots; 5.7 m/s)
Visibility:6 or more sm (10+ km)
Ceiling:2400 feet AGL
Clouds: overcast cloud deck at 2400 feet AGL
Text:EKRN 260250Z AUTO 21010KT 180V240 9999 OVC028/// 12/10 Q1009
Temperature: 12.0°C ( 54°F)
Dewpoint: 10.0°C ( 50°F) [RH = 88%]
Pressure (altimeter):29.79 inches Hg (1009.0 mb)
Winds:from the SSW (210 degrees) at 12 MPH (10 knots; 5.1 m/s)
Visibility:6 or more sm (10+ km)
Ceiling:2800 feet AGL
Clouds: overcast cloud deck at 2800 feet AGL
Text:EKRN 260220Z AUTO 20011KT 9999 OVC030/// 12/10 Q1010
Temperature: 12.0°C ( 54°F)
Dewpoint: 10.0°C ( 50°F) [RH = 88%]
Pressure (altimeter):29.82 inches Hg (1010.0 mb)
Winds:from the SSW (200 degrees) at 13 MPH (11 knots; 5.7 m/s)
Visibility:6 or more sm (10+ km)
Ceiling:3000 feet AGL
Clouds: overcast cloud deck at 3000 feet AGL
Text:EKRN 260150Z AUTO 20010KT 9999 OVC039/// 12/10 Q1010
Temperature: 12.0°C ( 54°F)
Dewpoint: 10.0°C ( 50°F) [RH = 88%]
Pressure (altimeter):29.82 inches Hg (1010.0 mb)
Winds:from the SSW (200 degrees) at 12 MPH (10 knots; 5.1 m/s)
Visibility:6 or more sm (10+ km)
Ceiling:3900 feet AGL
Clouds: overcast cloud deck at 3900 feet AGL
Text:EKRN 260120Z AUTO 22008KT 190V250 9999 -RA OVC041/// 12/10 Q1010
Temperature: 12.0°C ( 54°F)
Dewpoint: 10.0°C ( 50°F) [RH = 88%]
Pressure (altimeter):29.82 inches Hg (1010.0 mb)
Winds:from the SW (220 degrees) at 9 MPH (8 knots; 4.1 m/s)
Visibility:6 or more sm (10+ km)
Ceiling:4100 feet AGL
Clouds: overcast cloud deck at 4100 feet AGL
Weather:-RA (light rain)
Text:EKRN 260050Z AUTO 22006KT 190V250 9999 -RA OVC050/// 12/11 Q1011
Temperature: 12.0°C ( 54°F)
Dewpoint: 11.0°C ( 52°F) [RH = 94%]
Pressure (altimeter):29.85 inches Hg (1011.0 mb)
Winds:from the SW (220 degrees) at 7 MPH (6 knots; 3.1 m/s)
Visibility:6 or more sm (10+ km)
Ceiling:5000 feet AGL
Clouds: overcast cloud deck at 5000 feet AGL
Weather:-RA (light rain)
Text:EKRN 260020Z AUTO 20008KT 170V230 9999 -DZ OVC056/// 12/11 Q1011
Temperature: 12.0°C ( 54°F)
Dewpoint: 11.0°C ( 52°F) [RH = 94%]
Pressure (altimeter):29.85 inches Hg (1011.0 mb)
Winds:from the SSW (200 degrees) at 9 MPH (8 knots; 4.1 m/s)
Visibility:6 or more sm (10+ km)
Ceiling:5600 feet AGL
Clouds: overcast cloud deck at 5600 feet AGL
Weather:-DZ (light drizzle)
Text:EKRN 252350Z AUTO 19008KT 9999 OVC070/// 12/10 Q1011
Temperature: 12.0°C ( 54°F)
Dewpoint: 10.0°C ( 50°F) [RH = 88%]
Pressure (altimeter):29.85 inches Hg (1011.0 mb)
Winds:from the S (190 degrees) at 9 MPH (8 knots; 4.1 m/s)
Visibility:6 or more sm (10+ km)
Ceiling:7000 feet AGL
Clouds: overcast cloud deck at 7000 feet AGL
Text:EKRN 252320Z AUTO 21005KT 170V240 9999 -RA BKN071/// 12/10 Q1011
Temperature: 12.0°C ( 54°F)
Dewpoint: 10.0°C ( 50°F) [RH = 88%]
Pressure (altimeter):29.85 inches Hg (1011.0 mb)
Winds:from the SSW (210 degrees) at 6 MPH (5 knots; 2.6 m/s)
Visibility:6 or more sm (10+ km)
Ceiling:7100 feet AGL
Clouds: broken clouds at 7100 feet AGL
Weather:-RA (light rain)
Text:EKRN 252250Z AUTO 20005KT 150V240 9999 OVC095/// 12/10 Q1012
Temperature: 12.0°C ( 54°F)
Dewpoint: 10.0°C ( 50°F) [RH = 88%]
Pressure (altimeter):29.88 inches Hg (1012.0 mb)
Winds:from the SSW (200 degrees) at 6 MPH (5 knots; 2.6 m/s)
Visibility:6 or more sm (10+ km)
Ceiling:9500 feet AGL
Clouds: overcast cloud deck at 9500 feet AGL
Text:EKRN 252220Z AUTO 19005KT 160V220 9999 OVC085/// 12/10 Q1012
Temperature: 12.0°C ( 54°F)
Dewpoint: 10.0°C ( 50°F) [RH = 88%]
Pressure (altimeter):29.88 inches Hg (1012.0 mb)
Winds:from the S (190 degrees) at 6 MPH (5 knots; 2.6 m/s)
Visibility:6 or more sm (10+ km)
Ceiling:8500 feet AGL
Clouds: overcast cloud deck at 8500 feet AGL
Text:EKRN 252150Z AUTO 21006KT 180V240 9999 OVC068/// 13/11 Q1012
Temperature: 13.0°C ( 55°F)
Dewpoint: 11.0°C ( 52°F) [RH = 88%]
Pressure (altimeter):29.88 inches Hg (1012.0 mb)
Winds:from the SSW (210 degrees) at 7 MPH (6 knots; 3.1 m/s)
Visibility:6 or more sm (10+ km)
Ceiling:6800 feet AGL
Clouds: overcast cloud deck at 6800 feet AGL
Text:EKRN 252120Z AUTO 24010KT 9999 SCT043/// BKN057/// BKN069/// 13/10 Q1013
Temperature: 13.0°C ( 55°F)
Dewpoint: 10.0°C ( 50°F) [RH = 82%]
Pressure (altimeter):29.91 inches Hg (1013.0 mb)
Winds:from the WSW (240 degrees) at 12 MPH (10 knots; 5.1 m/s)
Visibility:6 or more sm (10+ km)
Ceiling:5700 feet AGL
Clouds: scattered clouds at 4300 feet AGL, broken clouds at 5700 feet AGL, broken clouds at 6900 feet AGL
Text:EKRN 252050Z AUTO 23008KT 200V260 9999 FEW046/// BKN054/// 13/10 Q1013
Temperature: 13.0°C ( 55°F)
Dewpoint: 10.0°C ( 50°F) [RH = 82%]
Pressure (altimeter):29.91 inches Hg (1013.0 mb)
Winds:from the SW (230 degrees) at 9 MPH (8 knots; 4.1 m/s)
Visibility:6 or more sm (10+ km)
Ceiling:5400 feet AGL
Clouds: few clouds at 4600 feet AGL, broken clouds at 5400 feet AGL
Text:EKRN 252020Z 21006KT 180V250 CAVOK 13/10 Q1012
Temperature: 13.0°C ( 55°F)
Dewpoint: 10.0°C ( 50°F) [RH = 82%]
Pressure (altimeter):29.88 inches Hg (1012.0 mb)
Winds:from the SSW (210 degrees) at 7 MPH (6 knots; 3.1 m/s)
Visibility:6 or more sm (10+ km)
Ceiling:ceiling and visibility are OK
Clouds:unknown
Text:EKRN 251950Z 20006KT 170V230 CAVOK 12/11 Q1012
Temperature: 12.0°C ( 54°F)
Dewpoint: 11.0°C ( 52°F) [RH = 94%]
Pressure (altimeter):29.88 inches Hg (1012.0 mb)
Winds:from the SSW (200 degrees) at 7 MPH (6 knots; 3.1 m/s)
Visibility:6 or more sm (10+ km)
Ceiling:ceiling and visibility are OK
Clouds:unknown
Text:EKRN 251920Z 20007KT 180V240 CAVOK 13/11 Q1012
Temperature: 13.0°C ( 55°F)
Dewpoint: 11.0°C ( 52°F) [RH = 88%]
Pressure (altimeter):29.88 inches Hg (1012.0 mb)
Winds:from the SSW (200 degrees) at 8 MPH (7 knots; 3.6 m/s)
Visibility:6 or more sm (10+ km)
Ceiling:ceiling and visibility are OK
Clouds:unknown
Text:EKRN 251850Z 20009KT CAVOK 12/10 Q1012
Temperature: 12.0°C ( 54°F)
Dewpoint: 10.0°C ( 50°F) [RH = 88%]
Pressure (altimeter):29.88 inches Hg (1012.0 mb)
Winds:from the SSW (200 degrees) at 10 MPH (9 knots; 4.6 m/s)
Visibility:6 or more sm (10+ km)
Ceiling:ceiling and visibility are OK
Clouds:unknown
Text:EKRN 251820Z 19007KT CAVOK 13/10 Q1012
Temperature: 13.0°C ( 55°F)
Dewpoint: 10.0°C ( 50°F) [RH = 82%]
Pressure (altimeter):29.88 inches Hg (1012.0 mb)
Winds:from the S (190 degrees) at 8 MPH (7 knots; 3.6 m/s)
Visibility:6 or more sm (10+ km)
Ceiling:ceiling and visibility are OK
Clouds:unknown
Text:EKRN 251750Z 23001KT CAVOK 13/10 Q1012
Temperature: 13.0°C ( 55°F)
Dewpoint: 10.0°C ( 50°F) [RH = 82%]
Pressure (altimeter):29.88 inches Hg (1012.0 mb)
Winds:from the SW (230 degrees) at 1 MPH (1 knots; 0.5 m/s)
Visibility:6 or more sm (10+ km)
Ceiling:ceiling and visibility are OK
Clouds:unknown
Text:EKRN 251720Z 23002KT CAVOK 12/10 Q1012
Temperature: 12.0°C ( 54°F)
Dewpoint: 10.0°C ( 50°F) [RH = 88%]
Pressure (altimeter):29.88 inches Hg (1012.0 mb)
Winds:from the SW (230 degrees) at 2 MPH (2 knots; 1.0 m/s)
Visibility:6 or more sm (10+ km)
Ceiling:ceiling and visibility are OK
Clouds:unknown
Text:EKRN 251650Z 21003KT CAVOK 13/10 Q1012
Temperature: 13.0°C ( 55°F)
Dewpoint: 10.0°C ( 50°F) [RH = 82%]
Pressure (altimeter):29.88 inches Hg (1012.0 mb)
Winds:from the SSW (210 degrees) at 3 MPH (3 knots; 1.5 m/s)
Visibility:6 or more sm (10+ km)
Ceiling:ceiling and visibility are OK
Clouds:unknown
Text:EKRN 251620Z 22004KT 190V270 CAVOK 13/10 Q1012
Temperature: 13.0°C ( 55°F)
Dewpoint: 10.0°C ( 50°F) [RH = 82%]
Pressure (altimeter):29.88 inches Hg (1012.0 mb)
Winds:from the SW (220 degrees) at 5 MPH (4 knots; 2.1 m/s)
Visibility:6 or more sm (10+ km)
Ceiling:ceiling and visibility are OK
Clouds:unknown
Text:EKRN 251550Z 22005KT 190V250 CAVOK 14/10 Q1012
Temperature: 14.0°C ( 57°F)
Dewpoint: 10.0°C ( 50°F) [RH = 77%]
Pressure (altimeter):29.88 inches Hg (1012.0 mb)
Winds:from the SW (220 degrees) at 6 MPH (5 knots; 2.6 m/s)
Visibility:6 or more sm (10+ km)
Ceiling:ceiling and visibility are OK
Clouds:unknown
Text:EKRN 251520Z 21005KT 190V250 CAVOK 14/10 Q1012
Temperature: 14.0°C ( 57°F)
Dewpoint: 10.0°C ( 50°F) [RH = 77%]
Pressure (altimeter):29.88 inches Hg (1012.0 mb)
Winds:from the SSW (210 degrees) at 6 MPH (5 knots; 2.6 m/s)
Visibility:6 or more sm (10+ km)
Ceiling:ceiling and visibility are OK
Clouds:unknown
Text:EKRN 251450Z 20004KT 170V240 CAVOK 14/11 Q1013
Temperature: 14.0°C ( 57°F)
Dewpoint: 11.0°C ( 52°F) [RH = 82%]
Pressure (altimeter):29.91 inches Hg (1013.0 mb)
Winds:from the SSW (200 degrees) at 5 MPH (4 knots; 2.1 m/s)
Visibility:6 or more sm (10+ km)
Ceiling:ceiling and visibility are OK
Clouds:unknown
Text:EKRN 251420Z 22004KT 190V250 CAVOK 14/11 Q1013
Temperature: 14.0°C ( 57°F)
Dewpoint: 11.0°C ( 52°F) [RH = 82%]
Pressure (altimeter):29.91 inches Hg (1013.0 mb)
Winds:from the SW (220 degrees) at 5 MPH (4 knots; 2.1 m/s)
Visibility:6 or more sm (10+ km)
Ceiling:ceiling and visibility are OK
Clouds:unknown
Text:EKRN 251350Z 21005KT 190V250 CAVOK 14/10 Q1013
Temperature: 14.0°C ( 57°F)
Dewpoint: 10.0°C ( 50°F) [RH = 77%]
Pressure (altimeter):29.91 inches Hg (1013.0 mb)
Winds:from the SSW (210 degrees) at 6 MPH (5 knots; 2.6 m/s)
Visibility:6 or more sm (10+ km)
Ceiling:ceiling and visibility are OK
Clouds:unknown
Text:EKRN 251320Z 23006KT 190V260 9999 FEW028 14/10 Q1013
Temperature: 14.0°C ( 57°F)
Dewpoint: 10.0°C ( 50°F) [RH = 77%]
Pressure (altimeter):29.91 inches Hg (1013.0 mb)
Winds:from the SW (230 degrees) at 7 MPH (6 knots; 3.1 m/s)
Visibility:6 or more sm (10+ km)
Ceiling:at least 12,000 feet AGL
Clouds: few clouds at 2800 feet AGL
Text:EKRN 251250Z 23007KT 200V260 9999 FEW028 14/11 Q1013
Temperature: 14.0°C ( 57°F)
Dewpoint: 11.0°C ( 52°F) [RH = 82%]
Pressure (altimeter):29.91 inches Hg (1013.0 mb)
Winds:from the SW (230 degrees) at 8 MPH (7 knots; 3.6 m/s)
Visibility:6 or more sm (10+ km)
Ceiling:at least 12,000 feet AGL
Clouds: few clouds at 2800 feet AGL
Text:EKRN 251220Z 24008KT 9999 FEW030 14/12 Q1013
Temperature: 14.0°C ( 57°F)
Dewpoint: 12.0°C ( 54°F) [RH = 88%]
Pressure (altimeter):29.91 inches Hg (1013.0 mb)
Winds:from the WSW (240 degrees) at 9 MPH (8 knots; 4.1 m/s)
Visibility:6 or more sm (10+ km)
Ceiling:at least 12,000 feet AGL
Clouds: few clouds at 3000 feet AGL
Text:EKRN 251150Z 24007KT 9999 FEW030TCU 14/11 Q1013
Temperature: 14.0°C ( 57°F)
Dewpoint: 11.0°C ( 52°F) [RH = 82%]
Pressure (altimeter):29.91 inches Hg (1013.0 mb)
Winds:from the WSW (240 degrees) at 8 MPH (7 knots; 3.6 m/s)
Visibility:6 or more sm (10+ km)
Ceiling:at least 12,000 feet AGL
Clouds: few clouds at 3000 feet AGL
Text:EKRN 251120Z 23007KT 9999 FEW030TCU 14/12 Q1013
Temperature: 14.0°C ( 57°F)
Dewpoint: 12.0°C ( 54°F) [RH = 88%]
Pressure (altimeter):29.91 inches Hg (1013.0 mb)
Winds:from the SW (230 degrees) at 8 MPH (7 knots; 3.6 m/s)
Visibility:6 or more sm (10+ km)
Ceiling:at least 12,000 feet AGL
Clouds: few clouds at 3000 feet AGL
Text:EKRN 251050Z 22007KT 190V250 9999 FEW030TCU 14/11 Q1013
Temperature: 14.0°C ( 57°F)
Dewpoint: 11.0°C ( 52°F) [RH = 82%]
Pressure (altimeter):29.91 inches Hg (1013.0 mb)
Winds:from the SW (220 degrees) at 8 MPH (7 knots; 3.6 m/s)
Visibility:6 or more sm (10+ km)
Ceiling:at least 12,000 feet AGL
Clouds: few clouds at 3000 feet AGL
Text:EKRN 251020Z 22006KT 190V250 9999 FEW030TCU 14/11 Q1013
Temperature: 14.0°C ( 57°F)
Dewpoint: 11.0°C ( 52°F) [RH = 82%]
Pressure (altimeter):29.91 inches Hg (1013.0 mb)
Winds:from the SW (220 degrees) at 7 MPH (6 knots; 3.1 m/s)
Visibility:6 or more sm (10+ km)
Ceiling:at least 12,000 feet AGL
Clouds: few clouds at 3000 feet AGL
Text:EKRN 250950Z 21005KT 180V240 9999 FEW030 14/12 Q1013
Temperature: 14.0°C ( 57°F)
Dewpoint: 12.0°C ( 54°F) [RH = 88%]
Pressure (altimeter):29.91 inches Hg (1013.0 mb)
Winds:from the SSW (210 degrees) at 6 MPH (5 knots; 2.6 m/s)
Visibility:6 or more sm (10+ km)
Ceiling:at least 12,000 feet AGL
Clouds: few clouds at 3000 feet AGL
Text:EKRN 250920Z 21005KT 180V250 9999 FEW018 FEW030TCU 13/12 Q1013
Temperature: 13.0°C ( 55°F)
Dewpoint: 12.0°C ( 54°F) [RH = 94%]
Pressure (altimeter):29.91 inches Hg (1013.0 mb)
Winds:from the SSW (210 degrees) at 6 MPH (5 knots; 2.6 m/s)
Visibility:6 or more sm (10+ km)
Ceiling:at least 12,000 feet AGL
Clouds: few clouds at 1800 feet AGL, few clouds at 3000 feet AGL
Text:EKRN 250850Z 22005KT 180V250 9999 FEW018 FEW030TCU 13/11 Q1013
Temperature: 13.0°C ( 55°F)
Dewpoint: 11.0°C ( 52°F) [RH = 88%]
Pressure (altimeter):29.91 inches Hg (1013.0 mb)
Winds:from the SW (220 degrees) at 6 MPH (5 knots; 2.6 m/s)
Visibility:6 or more sm (10+ km)
Ceiling:at least 12,000 feet AGL
Clouds: few clouds at 1800 feet AGL, few clouds at 3000 feet AGL
Text:EKRN 250847Z 22005KT 180V250 9999 FEW018 FEW030TCU 13/11 Q1013
Temperature: 13.0°C ( 55°F)
Dewpoint: 11.0°C ( 52°F) [RH = 88%]
Pressure (altimeter):29.91 inches Hg (1013.0 mb)
Winds:from the SW (220 degrees) at 6 MPH (5 knots; 2.6 m/s)
Visibility:6 or more sm (10+ km)
Ceiling:at least 12,000 feet AGL
Clouds: few clouds at 1800 feet AGL, few clouds at 3000 feet AGL
Text:EKRN 250846Z 22005KT 180V250 3500 RA FEW018 FEW030TCU 13/11 Q1013
Temperature: 13.0°C ( 55°F)
Dewpoint: 11.0°C ( 52°F) [RH = 88%]
Pressure (altimeter):29.91 inches Hg (1013.0 mb)
Winds:from the SW (220 degrees) at 6 MPH (5 knots; 2.6 m/s)
Visibility: 2.17 sm ( 3.49 km)
Ceiling:at least 12,000 feet AGL
Clouds: few clouds at 1800 feet AGL, few clouds at 3000 feet AGL
Weather:RA (moderate rain)
Text:EKRN 250820Z AUTO 21004KT 170V250 9999 BKN078/// 13/11 Q1013
Temperature: 13.0°C ( 55°F)
Dewpoint: 11.0°C ( 52°F) [RH = 88%]
Pressure (altimeter):29.91 inches Hg (1013.0 mb)
Winds:from the SSW (210 degrees) at 5 MPH (4 knots; 2.1 m/s)
Visibility:6 or more sm (10+ km)
Ceiling:7800 feet AGL
Clouds: broken clouds at 7800 feet AGL
Text:EKRN 250750Z AUTO 21004KT 170V250 9999 BKN080/// 13/11 Q1012
Temperature: 13.0°C ( 55°F)
Dewpoint: 11.0°C ( 52°F) [RH = 88%]
Pressure (altimeter):29.88 inches Hg (1012.0 mb)
Winds:from the SSW (210 degrees) at 5 MPH (4 knots; 2.1 m/s)
Visibility:6 or more sm (10+ km)
Ceiling:8000 feet AGL
Clouds: broken clouds at 8000 feet AGL
Text:EKRN 250720Z AUTO 23004KT 9999 FEW081/// 13/12 Q1012
Temperature: 13.0°C ( 55°F)
Dewpoint: 12.0°C ( 54°F) [RH = 94%]
Pressure (altimeter):29.88 inches Hg (1012.0 mb)
Winds:from the SW (230 degrees) at 5 MPH (4 knots; 2.1 m/s)
Visibility:6 or more sm (10+ km)
Ceiling:at least 12,000 feet AGL
Clouds: few clouds at 8100 feet AGL
Text:EKRN 250650Z AUTO 25005KT 9999 NCD 13/11 Q1012
Temperature: 13.0°C ( 55°F)
Dewpoint: 11.0°C ( 52°F) [RH = 88%]
Pressure (altimeter):29.88 inches Hg (1012.0 mb)
Winds:from the WSW (250 degrees) at 6 MPH (5 knots; 2.6 m/s)
Visibility:6 or more sm (10+ km)
Ceiling:at least 12,000 feet AGL
Clouds:sky clear below 12,000 feet AGL
Text:EKRN 250620Z AUTO 25005KT 9999 NCD 12/11 Q1012
Temperature: 12.0°C ( 54°F)
Dewpoint: 11.0°C ( 52°F) [RH = 94%]
Pressure (altimeter):29.88 inches Hg (1012.0 mb)
Winds:from the WSW (250 degrees) at 6 MPH (5 knots; 2.6 m/s)
Visibility:6 or more sm (10+ km)
Ceiling:at least 12,000 feet AGL
Clouds:sky clear below 12,000 feet AGL
Text:EKRN 250550Z AUTO 25005KT 9999 NCD 12/11 Q1011
Temperature: 12.0°C ( 54°F)
Dewpoint: 11.0°C ( 52°F) [RH = 94%]
Pressure (altimeter):29.85 inches Hg (1011.0 mb)
Winds:from the WSW (250 degrees) at 6 MPH (5 knots; 2.6 m/s)
Visibility:6 or more sm (10+ km)
Ceiling:at least 12,000 feet AGL
Clouds:sky clear below 12,000 feet AGL
Text:EKRN 250520Z AUTO 26005KT 9999 NCD 12/11 Q1011
Temperature: 12.0°C ( 54°F)
Dewpoint: 11.0°C ( 52°F) [RH = 94%]
Pressure (altimeter):29.85 inches Hg (1011.0 mb)
Winds:from the W (260 degrees) at 6 MPH (5 knots; 2.6 m/s)
Visibility:6 or more sm (10+ km)
Ceiling:at least 12,000 feet AGL
Clouds:sky clear below 12,000 feet AGL
Text:EKRN 250450Z AUTO 26006KT 9999 NCD 12/11 Q1011
Temperature: 12.0°C ( 54°F)
Dewpoint: 11.0°C ( 52°F) [RH = 94%]
Pressure (altimeter):29.85 inches Hg (1011.0 mb)
Winds:from the W (260 degrees) at 7 MPH (6 knots; 3.1 m/s)
Visibility:6 or more sm (10+ km)
Ceiling:at least 12,000 feet AGL
Clouds:sky clear below 12,000 feet AGL
Text:EKRN 250420Z AUTO 25007KT 9999 NCD 12/10 Q1011
Temperature: 12.0°C ( 54°F)
Dewpoint: 10.0°C ( 50°F) [RH = 88%]
Pressure (altimeter):29.85 inches Hg (1011.0 mb)
Winds:from the WSW (250 degrees) at 8 MPH (7 knots; 3.6 m/s)
Visibility:6 or more sm (10+ km)
Ceiling:at least 12,000 feet AGL
Clouds:sky clear below 12,000 feet AGL
Text:EKRN 250350Z AUTO 26008KT 9999 NCD 12/10 Q1011
Temperature: 12.0°C ( 54°F)
Dewpoint: 10.0°C ( 50°F) [RH = 88%]
Pressure (altimeter):29.85 inches Hg (1011.0 mb)
Winds:from the W (260 degrees) at 9 MPH (8 knots; 4.1 m/s)
Visibility:6 or more sm (10+ km)
Ceiling:at least 12,000 feet AGL
Clouds:sky clear below 12,000 feet AGL
Text:EKRN 250320Z AUTO 26008KT 9999 NCD 12/10 Q1011
Temperature: 12.0°C ( 54°F)
Dewpoint: 10.0°C ( 50°F) [RH = 88%]
Pressure (altimeter):29.85 inches Hg (1011.0 mb)
Winds:from the W (260 degrees) at 9 MPH (8 knots; 4.1 m/s)
Visibility:6 or more sm (10+ km)
Ceiling:at least 12,000 feet AGL
Clouds:sky clear below 12,000 feet AGL
Text:EKRN 250250Z AUTO 25008KT 9999 NCD 11/10 Q1011
Temperature: 11.0°C ( 52°F)
Dewpoint: 10.0°C ( 50°F) [RH = 94%]
Pressure (altimeter):29.85 inches Hg (1011.0 mb)
Winds:from the WSW (250 degrees) at 9 MPH (8 knots; 4.1 m/s)
Visibility:6 or more sm (10+ km)
Ceiling:at least 12,000 feet AGL
Clouds:sky clear below 12,000 feet AGL
Text:EKRN 250220Z AUTO 25007KT 9999 NCD 12/11 Q1010
Temperature: 12.0°C ( 54°F)
Dewpoint: 11.0°C ( 52°F) [RH = 94%]
Pressure (altimeter):29.82 inches Hg (1010.0 mb)
Winds:from the WSW (250 degrees) at 8 MPH (7 knots; 3.6 m/s)
Visibility:6 or more sm (10+ km)
Ceiling:at least 12,000 feet AGL
Clouds:sky clear below 12,000 feet AGL
Text:EKRN 250150Z AUTO 25008KT 9999 NCD 12/10 Q1010
Temperature: 12.0°C ( 54°F)
Dewpoint: 10.0°C ( 50°F) [RH = 88%]
Pressure (altimeter):29.82 inches Hg (1010.0 mb)
Winds:from the WSW (250 degrees) at 9 MPH (8 knots; 4.1 m/s)
Visibility:6 or more sm (10+ km)
Ceiling:at least 12,000 feet AGL
Clouds:sky clear below 12,000 feet AGL
Text:EKRN 250120Z AUTO 25009KT 9999 NCD 12/10 Q1010
Temperature: 12.0°C ( 54°F)
Dewpoint: 10.0°C ( 50°F) [RH = 88%]
Pressure (altimeter):29.82 inches Hg (1010.0 mb)
Winds:from the WSW (250 degrees) at 10 MPH (9 knots; 4.6 m/s)
Visibility:6 or more sm (10+ km)
Ceiling:at least 12,000 feet AGL
Clouds:sky clear below 12,000 feet AGL
Text:EKRN 250050Z AUTO 25011KT 9999 NCD 12/10 Q1010
Temperature: 12.0°C ( 54°F)
Dewpoint: 10.0°C ( 50°F) [RH = 88%]
Pressure (altimeter):29.82 inches Hg (1010.0 mb)
Winds:from the WSW (250 degrees) at 13 MPH (11 knots; 5.7 m/s)
Visibility:6 or more sm (10+ km)
Ceiling:at least 12,000 feet AGL
Clouds:sky clear below 12,000 feet AGL
Text:EKRN 250020Z AUTO 26006KT 9999 FEW085/// 12/10 Q1009
Temperature: 12.0°C ( 54°F)
Dewpoint: 10.0°C ( 50°F) [RH = 88%]
Pressure (altimeter):29.79 inches Hg (1009.0 mb)
Winds:from the W (260 degrees) at 7 MPH (6 knots; 3.1 m/s)
Visibility:6 or more sm (10+ km)
Ceiling:at least 12,000 feet AGL
Clouds: few clouds at 8500 feet AGL
Text:EKRN 242350Z AUTO 24006KT 9999 OVC084/// 12/11 Q1009
Temperature: 12.0°C ( 54°F)
Dewpoint: 11.0°C ( 52°F) [RH = 94%]
Pressure (altimeter):29.79 inches Hg (1009.0 mb)
Winds:from the WSW (240 degrees) at 7 MPH (6 knots; 3.1 m/s)
Visibility:6 or more sm (10+ km)
Ceiling:8400 feet AGL
Clouds: overcast cloud deck at 8400 feet AGL
Text:EKRN 242320Z AUTO 20005KT 170V250 9999 OVC085/// 12/11 Q1009
Temperature: 12.0°C ( 54°F)
Dewpoint: 11.0°C ( 52°F) [RH = 94%]
Pressure (altimeter):29.79 inches Hg (1009.0 mb)
Winds:from the SSW (200 degrees) at 6 MPH (5 knots; 2.6 m/s)
Visibility:6 or more sm (10+ km)
Ceiling:8500 feet AGL
Clouds: overcast cloud deck at 8500 feet AGL
Text:EKRN 242250Z AUTO 20006KT 160V220 6000 BKN081/// 12/12 Q1009
Temperature: 12.0°C ( 54°F)
Dewpoint: 12.0°C ( 54°F) [RH = 100%]
Pressure (altimeter):29.79 inches Hg (1009.0 mb)
Winds:from the SSW (200 degrees) at 7 MPH (6 knots; 3.1 m/s)
Visibility: 4 sm ( 6 km)
Ceiling:8100 feet AGL
Clouds: broken clouds at 8100 feet AGL
Text:EKRN 242220Z AUTO 19006KT 170V230 3200 BR FEW001/// SCT087/// 12/12 Q1009
Temperature: 12.0°C ( 54°F)
Dewpoint: 12.0°C ( 54°F) [RH = 100%]
Pressure (altimeter):29.79 inches Hg (1009.0 mb)
Winds:from the S (190 degrees) at 7 MPH (6 knots; 3.1 m/s)
Visibility: 1.99 sm ( 3.20 km)
Ceiling:at least 12,000 feet AGL
Clouds: few clouds at 100 feet AGL, scattered clouds at 8700 feet AGL
Weather:BR (mist)
Text:EKRN 242150Z AUTO 19006KT 4600 BR FEW017/// 12/12 Q1008
Temperature: 12.0°C ( 54°F)
Dewpoint: 12.0°C ( 54°F) [RH = 100%]
Pressure (altimeter):29.76 inches Hg (1008.0 mb)
Winds:from the S (190 degrees) at 7 MPH (6 knots; 3.1 m/s)
Visibility: 2.86 sm ( 4.60 km)
Ceiling:at least 12,000 feet AGL
Clouds: few clouds at 1700 feet AGL
Weather:BR (mist)
Text:EKRN 242120Z AUTO 17003KT 0750 R11/P1500N R29/P1500N FG NCD 11/11 Q1008
Temperature: 11.0°C ( 52°F)
Dewpoint: 11.0°C ( 52°F) [RH = 100%]
Pressure (altimeter):29.76 inches Hg (1008.0 mb)
Winds:from the S (170 degrees) at 3 MPH (3 knots; 1.5 m/s)
Visibility: 0.47 sm ( 0.76 km)
Ceiling:at least 12,000 feet AGL
Clouds:sky clear below 12,000 feet AGL
Weather:FG (fog)
Text:EKRN 242050Z AUTO 22002KT 5000 SCT076/// 12/12 Q1008
Temperature: 12.0°C ( 54°F)
Dewpoint: 12.0°C ( 54°F) [RH = 100%]
Pressure (altimeter):29.76 inches Hg (1008.0 mb)
Winds:from the SW (220 degrees) at 2 MPH (2 knots; 1.0 m/s)
Visibility: 3 sm ( 5 km)
Ceiling:at least 12,000 feet AGL
Clouds: scattered clouds at 7600 feet AGL
Text:EKRN 242020Z AUTO VRB02KT 6000 BKN064/// 12/12 Q1008
Temperature: 12.0°C ( 54°F)
Dewpoint: 12.0°C ( 54°F) [RH = 100%]
Pressure (altimeter):29.76 inches Hg (1008.0 mb)
Winds:variable direction winds at 2 MPH (2 knots; 1.0 m/s)
Visibility: 4 sm ( 6 km)
Ceiling:6400 feet AGL
Clouds: broken clouds at 6400 feet AGL
Text:EKRN 241950Z AUTO 20003KT 5000 -RA FEW015/// OVC052/// 12/12 Q1008
Temperature: 12.0°C ( 54°F)
Dewpoint: 12.0°C ( 54°F) [RH = 100%]
Pressure (altimeter):29.76 inches Hg (1008.0 mb)
Winds:from the SSW (200 degrees) at 3 MPH (3 knots; 1.5 m/s)
Visibility: 3 sm ( 5 km)
Ceiling:5200 feet AGL
Clouds: few clouds at 1500 feet AGL, overcast cloud deck at 5200 feet AGL
Weather:-RA (light rain)
Text:EKRN 241920Z AUTO 21006KT 170V250 5000 -RA BKN009/// OVC037/// 12/12 Q1008
Temperature: 12.0°C ( 54°F)
Dewpoint: 12.0°C ( 54°F) [RH = 100%]
Pressure (altimeter):29.76 inches Hg (1008.0 mb)
Winds:from the SSW (210 degrees) at 7 MPH (6 knots; 3.1 m/s)
Visibility: 3 sm ( 5 km)
Ceiling:900 feet AGL
Clouds: broken clouds at 900 feet AGL, overcast cloud deck at 3700 feet AGL
Weather:-RA (light rain)
Text:EKRN 241850Z AUTO 22005KT 170V270 6000 -RA FEW004/// BKN022/// BKN073/// OVC096/// 13/12 Q1007
Temperature: 13.0°C ( 55°F)
Dewpoint: 12.0°C ( 54°F) [RH = 94%]
Pressure (altimeter):29.73 inches Hg (1007.0 mb)
Winds:from the SW (220 degrees) at 6 MPH (5 knots; 2.6 m/s)
Visibility: 4 sm ( 6 km)
Ceiling:2200 feet AGL
Clouds: few clouds at 400 feet AGL, broken clouds at 2200 feet AGL, broken clouds at 7300 feet AGL, overcast cloud deck at 9600 feet AGL
Weather:-RA (light rain)
Text:EKRN 241820Z AUTO 20006KT 170V230 9999 OVC031/// 13/12 Q1007
Temperature: 13.0°C ( 55°F)
Dewpoint: 12.0°C ( 54°F) [RH = 94%]
Pressure (altimeter):29.73 inches Hg (1007.0 mb)
Winds:from the SSW (200 degrees) at 7 MPH (6 knots; 3.1 m/s)
Visibility:6 or more sm (10+ km)
Ceiling:3100 feet AGL
Clouds: overcast cloud deck at 3100 feet AGL
Text:EKRN 241750Z AUTO 20004KT 160V240 9999 SCT035/// OVC059/// 13/12 Q1007
Temperature: 13.0°C ( 55°F)
Dewpoint: 12.0°C ( 54°F) [RH = 94%]
Pressure (altimeter):29.73 inches Hg (1007.0 mb)
Winds:from the SSW (200 degrees) at 5 MPH (4 knots; 2.1 m/s)
Visibility:6 or more sm (10+ km)
Ceiling:5900 feet AGL
Clouds: scattered clouds at 3500 feet AGL, overcast cloud deck at 5900 feet AGL
Text:EKRN 241720Z AUTO 16002KT 9999 BKN061/// 13/12 Q1006
Temperature: 13.0°C ( 55°F)
Dewpoint: 12.0°C ( 54°F) [RH = 94%]
Pressure (altimeter):29.70 inches Hg (1006.0 mb)
Winds:from the SSE (160 degrees) at 2 MPH (2 knots; 1.0 m/s)
Visibility:6 or more sm (10+ km)
Ceiling:6100 feet AGL
Clouds: broken clouds at 6100 feet AGL
Text:EKRN 241650Z AUTO 20002KT 9999 NCD 13/12 Q1006
Temperature: 13.0°C ( 55°F)
Dewpoint: 12.0°C ( 54°F) [RH = 94%]
Pressure (altimeter):29.70 inches Hg (1006.0 mb)
Winds:from the SSW (200 degrees) at 2 MPH (2 knots; 1.0 m/s)
Visibility:6 or more sm (10+ km)
Ceiling:at least 12,000 feet AGL
Clouds:sky clear below 12,000 feet AGL

TAF for:EKRN (Ronne/Bornholm Arpt, HO, DK) issued at 0205 UTC 26 May 2022
Text:TAF EKRN 260205Z 2603/2612 22012G22KT 4000 RA BR BKN008 SCT020TCU
Forecast period:0300 to 1200 UTC 26 May 2022
Forecast type:FROM: standard forecast or significant change
Winds:from the SW (220 degrees) at 14 MPH (12 knots; 6.2 m/s) gusting to 25 MPH (22 knots; 11.3 m/s)
Visibility: 2.49 sm ( 4.01 km)
Ceiling:800 feet AGL
Clouds: broken clouds at 800 feet AGL, scattered clouds at 2000 feet AGL
Weather:RA BR (moderate rain, mist)
Text:BECMG 2603/2605 25018G30KT 9999 NSW SCT015
Forecast period:0300 to 1200 UTC 26 May 2022
Forecast type:BECOMING: Conditions expected to become as follows by 0500 UTC 26 May 2022
Winds:from the WSW (250 degrees) at 21 MPH (18 knots; 9.3 m/s) gusting to 34 MPH (30 knots; 15.4 m/s)
Visibility:6 or more sm (10+ km)
Ceiling:at least 12,000 feet AGL
Clouds: scattered clouds at 1500 feet AGL
Weather:NSW (no significant weather)
Text:TEMPO 2605/2608 25022G35KT 4000 SHRA BKN012 SCT015TCU
Forecast period:0500 to 0800 UTC 26 May 2022
Forecast type:TEMPORARY: The following changes expected for less than half the time period
Winds:from the WSW (250 degrees) at 25 MPH (22 knots; 11.3 m/s) gusting to 40 MPH (35 knots; 18.0 m/s)
Visibility: 2.49 sm ( 4.01 km)
Ceiling:1200 feet AGL
Clouds: broken clouds at 1200 feet AGL, scattered clouds at 1500 feet AGL
Weather:SHRA (rain showers)
Text:TEMPO 2608/2612 25022G35KT
Forecast period:0800 to 1200 UTC 26 May 2022
Forecast type:TEMPORARY: The following changes expected for less than half the time period
Winds:from the WSW (250 degrees) at 25 MPH (22 knots; 11.3 m/s) gusting to 40 MPH (35 knots; 18.0 m/s)
Clouds:missing